createdAt,value
2022-12-20T00:05:28.273Z,14.879598662207357
2022-12-20T00:23:15.015Z,14.160535117056856
2022-12-20T00:29:35.247Z,13.876254180602007
2022-12-20T00:41:12.849Z,13.642140468227424
2022-12-20T00:47:33.544Z,13.05685618729097
2022-12-20T00:53:54.930Z,13.0
2022-12-20T01:04:31.954Z,13.765886287625419
2022-12-20T01:10:52.298Z,13.51505016722408
2022-12-20T01:30:40.957Z,12.996655518394649
2022-12-20T01:37:01.121Z,12.284280936454849
2022-12-20T01:43:21.378Z,12.20401337792642
2022-12-20T01:59:29.102Z,12.110367892976589
2022-12-20T02:05:49.343Z,11.658862876254181
2022-12-20T02:12:09.341Z,11.207357859531772
2022-12-20T02:18:30.006Z,11.879598662207357
2022-12-20T02:24:49.337Z,12.979933110367893
2022-12-20T02:31:09.141Z,12.882943143812708
2022-12-20T02:38:17.189Z,12.548494983277592
2022-12-20T02:44:38.187Z,12.006688963210703
2022-12-20T02:56:49.295Z,10.765886287625419
2022-12-20T03:03:09.210Z,11.08361204013378
2022-12-20T03:09:29.113Z,11.05685618729097
2022-12-20T03:15:48.153Z,11.31772575250836
2022-12-20T03:25:33.583Z,10.277591973244148
2022-12-20T03:31:53.445Z,10.214046822742475
2022-12-20T03:38:14.060Z,10.424749163879598
2022-12-20T03:44:33.603Z,9.812709030100335
2022-12-20T03:50:52.978Z,9.33779264214047
2022-12-20T04:11:55.697Z,8.779264214046822
2022-12-20T04:18:15.743Z,8.735785953177258
2022-12-20T04:27:16.800Z,9.150501672240802
2022-12-20T04:37:04.038Z,8.361204013377927
2022-12-20T04:43:24.534Z,7.5719063545150505
2022-12-20T04:49:44.884Z,8.37123745819398
2022-12-20T04:56:05.031Z,7.622073578595318
2022-12-20T05:07:18.834Z,7.528428093645485
2022-12-20T05:13:38.560Z,6.68561872909699
2022-12-20T05:19:58.558Z,7.441471571906354
2022-12-20T05:28:55.563Z,7.414715719063545
2022-12-20T05:35:17.438Z,7.618729096989966
2022-12-20T05:43:55.868Z,7.438127090301004
2022-12-20T05:56:10.295Z,7.083612040133779
2022-12-20T06:02:29.844Z,7.672240802675585
2022-12-20T06:08:49.109Z,7.879598662207358
2022-12-20T06:19:06.129Z,8.080267558528428
2022-12-20T06:25:25.656Z,7.775919732441472
2022-12-20T06:31:44.921Z,7.622073578595318
2022-12-20T06:40:38.751Z,7.672240802675585
2022-12-20T06:47:01.229Z,7.073578595317726
2022-12-20T06:54:17.983Z,7.444816053511706
2022-12-20T07:02:33.393Z,7.822742474916388
2022-12-20T07:08:54.891Z,8.618729096989966
2022-12-20T07:17:06.105Z,8.157190635451505
2022-12-20T07:23:28.719Z,7.725752508361204
2022-12-20T07:29:49.510Z,7.214046822742475
2022-12-20T07:40:56.083Z,7.903010033444816
2022-12-20T07:47:17.970Z,9.08695652173913
2022-12-20T08:05:02.737Z,8.033444816053512
2022-12-20T08:15:35.873Z,9.602006688963211
2022-12-20T08:22:00.775Z,8.408026755852843
2022-12-20T08:28:29.758Z,8.963210702341136
2022-12-20T08:34:54.166Z,9.150501672240802
2022-12-20T08:41:18.510Z,8.74581939799331
2022-12-20T08:47:44.189Z,9.441471571906355
2022-12-20T08:54:11.532Z,9.073578595317725
2022-12-20T09:04:51.914Z,8.762541806020067
2022-12-20T09:11:15.296Z,8.939799331103679
2022-12-20T09:17:38.193Z,8.963210702341136
2022-12-20T09:28:03.194Z,8.77257525083612
2022-12-20T09:46:07.789Z,7.695652173913044
2022-12-20T09:52:29.482Z,9.0
2022-12-20T09:58:52.869Z,8.050167224080267
2022-12-20T10:08:13.388Z,8.785953177257525
2022-12-20T10:16:12.175Z,8.765886287625419
2022-12-20T10:27:20.542Z,8.822742474916389
2022-12-20T10:33:46.176Z,8.451505016722408
2022-12-20T10:40:09.343Z,8.622073578595318
2022-12-20T10:46:32.011Z,8.879598662207357
2022-12-20T10:56:24.789Z,8.919732441471572
2022-12-20T11:02:46.679Z,10.418060200668897
2022-12-20T11:09:09.958Z,8.779264214046822
2022-12-20T11:15:34.278Z,8.441471571906355
2022-12-20T11:25:34.896Z,8.478260869565217
2022-12-20T11:31:57.731Z,8.080267558528428
2022-12-20T11:38:19.335Z,7.986622073578595
2022-12-20T11:44:50.098Z,7.170568561872909
2022-12-20T11:59:47.647Z,7.869565217391305
2022-12-20T12:06:09.723Z,9.137123745819398
2022-12-20T12:12:33.882Z,7.337792642140468
2022-12-20T12:18:57.557Z,7.254180602006689
2022-12-20T12:25:19.595Z,7.344481605351171
2022-12-20T12:31:41.413Z,7.274247491638796
2022-12-20T12:38:03.819Z,7.625418060200669
2022-12-20T12:46:12.440Z,7.525083612040134
2022-12-20T12:52:36.947Z,7.247491638795987
2022-12-20T12:58:59.150Z,8.013377926421406
2022-12-20T13:05:25.853Z,7.872909698996655
2022-12-20T13:11:53.703Z,7.1404682274247495
2022-12-20T13:18:23.227Z,8.578595317725753
2022-12-20T13:24:45.894Z,7.063545150501672
2022-12-20T13:31:09.134Z,8.023411371237458
2022-12-20T13:42:31.746Z,7.367892976588629
2022-12-20T13:52:32.289Z,8.85953177257525
2022-12-20T13:58:54.372Z,9.117056856187292
2022-12-20T14:05:17.456Z,10.491638795986622
2022-12-20T14:15:54.403Z,10.76923076923077
2022-12-20T14:23:41.293Z,8.842809364548495
2022-12-20T14:30:04.168Z,9.421404682274247
2022-12-20T14:36:26.962Z,10.053511705685619
2022-12-20T14:42:51.261Z,9.705685618729097
2022-12-20T14:49:15.262Z,8.76923076923077
2022-12-20T15:00:34.552Z,9.715719063545151
2022-12-20T15:06:54.044Z,7.909698996655519
2022-12-20T15:13:14.157Z,9.160535117056856
2022-12-20T15:23:43.816Z,7.906354515050167
2022-12-20T15:30:46.997Z,8.347826086956522
2022-12-20T15:37:06.795Z,11.31438127090301
2022-12-20T15:43:27.005Z,10.85953177257525
2022-12-20T15:49:50.486Z,24.65551839464883
2022-12-20T16:01:09.427Z,10.528428093645484
2022-12-20T16:08:18.280Z,12.043478260869565
2022-12-20T16:14:37.724Z,11.127090301003344
2022-12-20T16:20:57.539Z,11.036789297658864
2022-12-20T16:27:18.938Z,10.240802675585284
2022-12-20T16:33:42.893Z,9.906354515050166
2022-12-20T16:48:20.119Z,11.404682274247492
2022-12-20T16:54:40.048Z,12.294314381270903
2022-12-20T17:00:59.939Z,13.060200668896321
2022-12-20T17:11:21.763Z,13.193979933110368
2022-12-20T17:17:41.062Z,19.8561872909699
2022-12-20T17:24:01.548Z,14.775919732441471
2022-12-20T17:30:21.461Z,14.080267558528428
2022-12-20T17:36:40.290Z,15.568561872909699
2022-12-20T17:44:52.529Z,15.665551839464882
2022-12-20T17:51:12.934Z,17.381270903010034
2022-12-20T17:57:33.565Z,17.183946488294314
2022-12-20T18:04:04.146Z,18.20066889632107
2022-12-20T18:10:27.285Z,18.909698996655518
2022-12-20T18:16:57.927Z,18.598662207357858
2022-12-20T18:23:23.587Z,18.842809364548494
2022-12-20T18:29:44.726Z,20.765886287625417
2022-12-20T18:36:04.739Z,19.862876254180602
2022-12-20T18:42:26.480Z,22.096989966555185
2022-12-20T18:48:47.654Z,22.093645484949832
2022-12-20T18:55:09.905Z,21.702341137123746
2022-12-20T19:01:34.540Z,22.725752508361204
2022-12-20T19:10:38.154Z,22.224080267558527
2022-12-20T19:17:02.877Z,22.983277591973245
2022-12-20T19:23:24.102Z,21.28428093645485
2022-12-20T19:36:03.322Z,22.929765886287626
2022-12-20T19:47:46.066Z,24.698996655518396
2022-12-20T19:56:35.824Z,24.638795986622075
2022-12-20T20:08:35.971Z,22.692307692307693
2022-12-20T20:14:56.728Z,24.08695652173913
2022-12-20T20:22:11.695Z,27.54515050167224
2022-12-20T20:28:33.140Z,25.498327759197323
2022-12-20T20:37:35.577Z,25.73913043478261
2022-12-20T20:48:13.778Z,25.839464882943144
2022-12-20T20:54:51.362Z,26.31438127090301
2022-12-20T21:06:44.448Z,25.214046822742475
2022-12-20T21:13:06.017Z,25.83277591973244
2022-12-20T21:19:27.707Z,28.51505016722408
2022-12-20T21:25:49.366Z,26.836120401337794
2022-12-20T21:32:10.682Z,27.585284280936456
2022-12-20T21:38:31.839Z,29.013377926421406
2022-12-20T21:44:56.567Z,30.648829431438127
2022-12-20T21:51:22.203Z,31.96989966555184
2022-12-20T21:57:43.716Z,33.51170568561873
2022-12-20T22:04:04.285Z,32.86622073578595
2022-12-20T22:13:15.212Z,34.979933110367895
2022-12-20T22:19:37.373Z,35.26086956521739
2022-12-20T22:26:00.611Z,36.39464882943144
2022-12-20T22:48:35.923Z,37.93979933110368
2022-12-20T22:57:21.896Z,38.020066889632105
2022-12-20T23:03:43.462Z,37.274247491638796
2022-12-20T23:15:33.232Z,38.34782608695652
2022-12-20T23:26:51.075Z,36.7324414715719
2022-12-20T23:33:10.174Z,37.71571906354515
2022-12-20T23:39:30.705Z,37.31438127090301
2022-12-20T23:45:50.359Z,36.72240802675585
2022-12-20T23:52:10.425Z,36.02341137123746
2022-12-20T23:58:31.040Z,37.30769230769231
